sensor_id;sensor_type;location;lat;lon;timestamp;temperature;humidity
9998;DHT22;5038;53.064;8.624;2022-08-30T00:01:25;16.70;99.80
9998;DHT22;5038;53.064;8.624;2022-08-30T00:03:54;16.70;99.90
9998;DHT22;5038;53.064;8.624;2022-08-30T00:06:25;16.60;99.90
9998;DHT22;5038;53.064;8.624;2022-08-30T00:08:55;16.60;99.90
9998;DHT22;5038;53.064;8.624;2022-08-30T00:11:26;16.60;99.90
9998;DHT22;5038;53.064;8.624;2022-08-30T00:13:55;16.60;99.90
9998;DHT22;5038;53.064;8.624;2022-08-30T00:16:24;16.50;99.90
9998;DHT22;5038;53.064;8.624;2022-08-30T00:18:52;16.50;99.90
9998;DHT22;5038;53.064;8.624;2022-08-30T00:21:21;16.50;99.90
9998;DHT22;5038;53.064;8.624;2022-08-30T00:23:49;16.40;99.90
9998;DHT22;5038;53.064;8.624;2022-08-30T00:26:19;16.40;99.90
9998;DHT22;5038;53.064;8.624;2022-08-30T00:28:47;16.40;99.90
9998;DHT22;5038;53.064;8.624;2022-08-30T00:31:15;16.30;99.90
9998;DHT22;5038;53.064;8.624;2022-08-30T00:33:44;16.30;99.90
9998;DHT22;5038;53.064;8.624;2022-08-30T00:36:12;16.30;99.90
9998;DHT22;5038;53.064;8.624;2022-08-30T00:38:41;16.20;99.90
9998;DHT22;5038;53.064;8.624;2022-08-30T00:41:09;16.20;99.90
9998;DHT22;5038;53.064;8.624;2022-08-30T00:43:38;16.20;99.90
9998;DHT22;5038;53.064;8.624;2022-08-30T00:46:06;16.10;99.90
9998;DHT22;5038;53.064;8.624;2022-08-30T00:48:37;16.10;99.90
9998;DHT22;5038;53.064;8.624;2022-08-30T00:51:09;16.10;99.90
9998;DHT22;5038;53.064;8.624;2022-08-30T00:53:43;16.00;99.90
9998;DHT22;5038;53.064;8.624;2022-08-30T00:56:12;16.00;99.90
9998;DHT22;5038;53.064;8.624;2022-08-30T00:58:45;16.00;99.90
9998;DHT22;5038;53.064;8.624;2022-08-30T01:01:14;15.90;99.90
9998;DHT22;5038;53.064;8.624;2022-08-30T01:03:43;15.90;99.90
9998;DHT22;5038;53.064;8.624;2022-08-30T01:06:13;15.80;99.90
9998;DHT22;5038;53.064;8.624;2022-08-30T01:08:42;15.80;99.90
9998;DHT22;5038;53.064;8.624;2022-08-30T01:11:11;15.80;99.90
9998;DHT22;5038;53.064;8.624;2022-08-30T01:13:41;15.80;99.90
9998;DHT22;5038;53.064;8.624;2022-08-30T01:16:10;15.70;99.90
9998;DHT22;5038;53.064;8.624;2022-08-30T01:18:38;15.70;99.90
9998;DHT22;5038;53.064;8.624;2022-08-30T01:21:14;15.70;99.90
9998;DHT22;5038;53.064;8.624;2022-08-30T01:23:47;15.70;99.90
9998;DHT22;5038;53.064;8.624;2022-08-30T01:26:16;15.60;99.90
9998;DHT22;5038;53.064;8.624;2022-08-30T01:28:51;15.60;99.90
9998;DHT22;5038;53.064;8.624;2022-08-30T01:31:21;15.60;99.90
9998;DHT22;5038;53.064;8.624;2022-08-30T01:33:49;15.50;99.90
9998;DHT22;5038;53.064;8.624;2022-08-30T01:36:19;15.50;99.90
9998;DHT22;5038;53.064;8.624;2022-08-30T01:38:51;15.50;99.90
9998;DHT22;5038;53.064;8.624;2022-08-30T01:41:21;15.40;99.90
9998;DHT22;5038;53.064;8.624;2022-08-30T01:43:52;15.40;99.90
9998;DHT22;5038;53.064;8.624;2022-08-30T01:46:22;15.40;99.90
9998;DHT22;5038;53.064;8.624;2022-08-30T01:48:53;15.30;99.90
9998;DHT22;5038;53.064;8.624;2022-08-30T01:51:23;15.30;99.90
9998;DHT22;5038;53.064;8.624;2022-08-30T01:53:53;15.30;99.90
9998;DHT22;5038;53.064;8.624;2022-08-30T01:56:21;15.30;99.90
9998;DHT22;5038;53.064;8.624;2022-08-30T01:58:49;15.20;99.90
9998;DHT22;5038;53.064;8.624;2022-08-30T02:01:19;15.20;99.90
9998;DHT22;5038;53.064;8.624;2022-08-30T02:03:49;15.20;99.90
9998;DHT22;5038;53.064;8.624;2022-08-30T02:06:19;15.10;99.90
9998;DHT22;5038;53.064;8.624;2022-08-30T02:08:48;15.10;99.90
9998;DHT22;5038;53.064;8.624;2022-08-30T02:11:17;15.10;99.90
9998;DHT22;5038;53.064;8.624;2022-08-30T02:13:46;15.00;99.90
9998;DHT22;5038;53.064;8.624;2022-08-30T02:16:17;15.00;99.90
9998;DHT22;5038;53.064;8.624;2022-08-30T02:18:45;15.00;99.90
9998;DHT22;5038;53.064;8.624;2022-08-30T02:21:14;15.00;99.90
9998;DHT22;5038;53.064;8.624;2022-08-30T02:23:42;14.90;99.90
9998;DHT22;5038;53.064;8.624;2022-08-30T02:26:12;14.90;99.90
9998;DHT22;5038;53.064;8.624;2022-08-30T02:28:42;14.90;99.90
9998;DHT22;5038;53.064;8.624;2022-08-30T02:31:16;14.80;99.90
9998;DHT22;5038;53.064;8.624;2022-08-30T02:33:47;14.80;99.90
9998;DHT22;5038;53.064;8.624;2022-08-30T02:36:16;14.80;99.90
9998;DHT22;5038;53.064;8.624;2022-08-30T02:38:44;14.70;99.90
9998;DHT22;5038;53.064;8.624;2022-08-30T02:41:13;14.70;99.90
9998;DHT22;5038;53.064;8.624;2022-08-30T02:43:42;14.70;99.90
9998;DHT22;5038;53.064;8.624;2022-08-30T02:46:10;14.70;99.90
9998;DHT22;5038;53.064;8.624;2022-08-30T02:48:39;14.70;99.90
9998;DHT22;5038;53.064;8.624;2022-08-30T02:51:10;14.60;99.90
9998;DHT22;5038;53.064;8.624;2022-08-30T02:53:39;14.60;99.90
9998;DHT22;5038;53.064;8.624;2022-08-30T02:56:08;14.60;99.90
9998;DHT22;5038;53.064;8.624;2022-08-30T02:58:36;14.60;99.90
9998;DHT22;5038;53.064;8.624;2022-08-30T03:01:08;14.50;99.90
9998;DHT22;5038;53.064;8.624;2022-08-30T03:03:37;14.50;99.90
9998;DHT22;5038;53.064;8.624;2022-08-30T03:06:06;14.50;99.90
9998;DHT22;5038;53.064;8.624;2022-08-30T03:08:36;14.40;99.90
9998;DHT22;5038;53.064;8.624;2022-08-30T03:11:05;14.40;99.90
9998;DHT22;5038;53.064;8.624;2022-08-30T03:13:33;14.40;99.90
9998;DHT22;5038;53.064;8.624;2022-08-30T03:16:01;14.30;99.90
9998;DHT22;5038;53.064;8.624;2022-08-30T03:18:31;14.30;99.90
9998;DHT22;5038;53.064;8.624;2022-08-30T03:21:00;14.30;99.90
9998;DHT22;5038;53.064;8.624;2022-08-30T03:23:28;14.30;99.90
9998;DHT22;5038;53.064;8.624;2022-08-30T03:25:57;14.30;99.90
9998;DHT22;5038;53.064;8.624;2022-08-30T03:28:25;14.20;99.90
9998;DHT22;5038;53.064;8.624;2022-08-30T03:30:53;14.20;99.90
9998;DHT22;5038;53.064;8.624;2022-08-30T03:33:21;14.20;99.90
9998;DHT22;5038;53.064;8.624;2022-08-30T03:35:51;14.20;99.90
9998;DHT22;5038;53.064;8.624;2022-08-30T03:38:19;14.20;99.90
9998;DHT22;5038;53.064;8.624;2022-08-30T03:40:48;14.20;99.90
9998;DHT22;5038;53.064;8.624;2022-08-30T03:43:16;14.10;99.90
9998;DHT22;5038;53.064;8.624;2022-08-30T03:45:45;14.10;99.90
9998;DHT22;5038;53.064;8.624;2022-08-30T03:48:13;14.10;99.90
9998;DHT22;5038;53.064;8.624;2022-08-30T03:50:41;14.10;99.90
9998;DHT22;5038;53.064;8.624;2022-08-30T03:53:11;14.10;99.90
9998;DHT22;5038;53.064;8.624;2022-08-30T03:55:39;14.00;99.90
9998;DHT22;5038;53.064;8.624;2022-08-30T03:58:07;14.00;99.90
9998;DHT22;5038;53.064;8.624;2022-08-30T04:00:35;14.00;99.90
9998;DHT22;5038;53.064;8.624;2022-08-30T04:03:04;14.00;99.90
9998;DHT22;5038;53.064;8.624;2022-08-30T04:05:32;14.00;99.90
9998;DHT22;5038;53.064;8.624;2022-08-30T04:08:00;14.00;99.90
9998;DHT22;5038;53.064;8.624;2022-08-30T04:10:30;14.00;99.90
9998;DHT22;5038;53.064;8.624;2022-08-30T04:12:58;13.90;99.90
9998;DHT22;5038;53.064;8.624;2022-08-30T04:15:26;13.90;99.90
9998;DHT22;5038;53.064;8.624;2022-08-30T04:17:54;13.90;99.90
9998;DHT22;5038;53.064;8.624;2022-08-30T04:20:23;13.90;99.90
9998;DHT22;5038;53.064;8.624;2022-08-30T04:22:51;13.80;99.90
9998;DHT22;5038;53.064;8.624;2022-08-30T04:25:19;13.80;99.90
9998;DHT22;5038;53.064;8.624;2022-08-30T04:27:48;13.80;99.90
9998;DHT22;5038;53.064;8.624;2022-08-30T04:30:17;13.80;99.90
9998;DHT22;5038;53.064;8.624;2022-08-30T04:32:45;13.80;99.90
9998;DHT22;5038;53.064;8.624;2022-08-30T04:35:13;13.80;99.90
9998;DHT22;5038;53.064;8.624;2022-08-30T04:37:42;13.80;99.90
9998;DHT22;5038;53.064;8.624;2022-08-30T04:40:10;13.80;99.90
9998;DHT22;5038;53.064;8.624;2022-08-30T04:42:40;13.70;99.90
9998;DHT22;5038;53.064;8.624;2022-08-30T04:45:12;13.70;99.90
9998;DHT22;5038;53.064;8.624;2022-08-30T04:47:42;13.70;99.90
9998;DHT22;5038;53.064;8.624;2022-08-30T04:50:14;13.70;99.90
9998;DHT22;5038;53.064;8.624;2022-08-30T04:52:42;13.70;99.90
9998;DHT22;5038;53.064;8.624;2022-08-30T04:55:11;13.70;99.90
9998;DHT22;5038;53.064;8.624;2022-08-30T04:57:46;13.70;99.90
9998;DHT22;5038;53.064;8.624;2022-08-30T05:00:16;13.70;99.90
9998;DHT22;5038;53.064;8.624;2022-08-30T05:02:46;13.70;99.90
9998;DHT22;5038;53.064;8.624;2022-08-30T05:05:14;13.70;99.90
9998;DHT22;5038;53.064;8.624;2022-08-30T05:08:00;13.70;99.90
9998;DHT22;5038;53.064;8.624;2022-08-30T05:10:28;13.70;99.90
9998;DHT22;5038;53.064;8.624;2022-08-30T05:12:56;13.70;99.90
9998;DHT22;5038;53.064;8.624;2022-08-30T05:15:26;13.70;99.90
9998;DHT22;5038;53.064;8.624;2022-08-30T05:17:54;13.70;99.90
9998;DHT22;5038;53.064;8.624;2022-08-30T05:20:23;13.70;99.90
9998;DHT22;5038;53.064;8.624;2022-08-30T05:22:51;13.80;99.90
9998;DHT22;5038;53.064;8.624;2022-08-30T05:25:21;13.80;99.90
9998;DHT22;5038;53.064;8.624;2022-08-30T05:27:50;13.80;99.90
9998;DHT22;5038;53.064;8.624;2022-08-30T05:30:19;13.80;99.90
9998;DHT22;5038;53.064;8.624;2022-08-30T05:32:49;13.80;99.90
9998;DHT22;5038;53.064;8.624;2022-08-30T05:35:18;13.80;99.90
9998;DHT22;5038;53.064;8.624;2022-08-30T05:37:51;13.90;99.90
9998;DHT22;5038;53.064;8.624;2022-08-30T05:40:20;13.90;99.90
9998;DHT22;5038;53.064;8.624;2022-08-30T05:42:48;14.00;99.90
9998;DHT22;5038;53.064;8.624;2022-08-30T05:45:17;14.00;99.90
9998;DHT22;5038;53.064;8.624;2022-08-30T05:47:45;14.10;99.90
9998;DHT22;5038;53.064;8.624;2022-08-30T05:50:15;14.20;99.90
9998;DHT22;5038;53.064;8.624;2022-08-30T05:52:43;14.20;99.90
9998;DHT22;5038;53.064;8.624;2022-08-30T05:55:12;14.20;99.90
9998;DHT22;5038;53.064;8.624;2022-08-30T05:57:40;14.30;99.90
9998;DHT22;5038;53.064;8.624;2022-08-30T06:00:12;14.30;99.90
9998;DHT22;5038;53.064;8.624;2022-08-30T06:02:41;14.40;99.90
9998;DHT22;5038;53.064;8.624;2022-08-30T06:05:10;14.40;99.90
9998;DHT22;5038;53.064;8.624;2022-08-30T06:07:42;14.50;99.90
9998;DHT22;5038;53.064;8.624;2022-08-30T06:10:10;14.60;99.90
9998;DHT22;5038;53.064;8.624;2022-08-30T06:12:40;14.60;99.90
9998;DHT22;5038;53.064;8.624;2022-08-30T06:15:10;14.70;99.90
9998;DHT22;5038;53.064;8.624;2022-08-30T06:17:38;14.70;99.90
9998;DHT22;5038;53.064;8.624;2022-08-30T06:20:07;14.80;99.90
9998;DHT22;5038;53.064;8.624;2022-08-30T06:22:36;14.80;99.90
9998;DHT22;5038;53.064;8.624;2022-08-30T06:25:07;14.80;99.90
9998;DHT22;5038;53.064;8.624;2022-08-30T06:27:35;14.90;99.90
9998;DHT22;5038;53.064;8.624;2022-08-30T06:30:04;14.90;99.90
9998;DHT22;5038;53.064;8.624;2022-08-30T06:32:34;14.90;99.90
9998;DHT22;5038;53.064;8.624;2022-08-30T06:35:02;15.00;99.90
9998;DHT22;5038;53.064;8.624;2022-08-30T06:37:31;15.00;99.90
9998;DHT22;5038;53.064;8.624;2022-08-30T06:40:00;15.10;99.90
9998;DHT22;5038;53.064;8.624;2022-08-30T06:42:32;15.10;99.90
9998;DHT22;5038;53.064;8.624;2022-08-30T06:45:01;15.10;99.90
9998;DHT22;5038;53.064;8.624;2022-08-30T06:47:38;15.10;99.90
9998;DHT22;5038;53.064;8.624;2022-08-30T06:50:08;15.20;99.90
9998;DHT22;5038;53.064;8.624;2022-08-30T06:52:38;15.20;99.90
9998;DHT22;5038;53.064;8.624;2022-08-30T06:55:08;15.20;99.90
9998;DHT22;5038;53.064;8.624;2022-08-30T06:57:38;15.20;99.90
9998;DHT22;5038;53.064;8.624;2022-08-30T07:00:09;15.30;99.90
9998;DHT22;5038;53.064;8.624;2022-08-30T07:02:38;15.30;99.90
9998;DHT22;5038;53.064;8.624;2022-08-30T07:05:08;15.30;99.90
9998;DHT22;5038;53.064;8.624;2022-08-30T07:07:42;15.30;99.90
9998;DHT22;5038;53.064;8.624;2022-08-30T07:10:10;15.30;99.90
9998;DHT22;5038;53.064;8.624;2022-08-30T07:12:41;15.30;99.90
9998;DHT22;5038;53.064;8.624;2022-08-30T07:15:10;15.40;99.90
9998;DHT22;5038;53.064;8.624;2022-08-30T07:17:38;15.40;99.90
9998;DHT22;5038;53.064;8.624;2022-08-30T07:20:24;15.50;99.90
9998;DHT22;5038;53.064;8.624;2022-08-30T07:22:52;15.50;99.90
9998;DHT22;5038;53.064;8.624;2022-08-30T07:25:20;15.60;99.90
9998;DHT22;5038;53.064;8.624;2022-08-30T07:27:50;15.60;99.90
9998;DHT22;5038;53.064;8.624;2022-08-30T07:30:18;15.70;99.90
9998;DHT22;5038;53.064;8.624;2022-08-30T07:32:47;15.70;99.90
9998;DHT22;5038;53.064;8.624;2022-08-30T07:35:15;15.80;99.90
9998;DHT22;5038;53.064;8.624;2022-08-30T07:37:44;15.90;99.90
9998;DHT22;5038;53.064;8.624;2022-08-30T07:40:12;15.90;99.90
9998;DHT22;5038;53.064;8.624;2022-08-30T07:42:40;16.00;99.90
9998;DHT22;5038;53.064;8.624;2022-08-30T07:45:11;16.20;99.90
9998;DHT22;5038;53.064;8.624;2022-08-30T07:47:40;16.30;99.90
9998;DHT22;5038;53.064;8.624;2022-08-30T07:50:08;16.30;99.90
9998;DHT22;5038;53.064;8.624;2022-08-30T07:52:36;16.40;99.90
9998;DHT22;5038;53.064;8.624;2022-08-30T07:55:06;16.50;99.90
9998;DHT22;5038;53.064;8.624;2022-08-30T07:57:34;16.60;99.90
9998;DHT22;5038;53.064;8.624;2022-08-30T08:00:04;16.70;99.90
9998;DHT22;5038;53.064;8.624;2022-08-30T08:02:38;16.70;99.90
9998;DHT22;5038;53.064;8.624;2022-08-30T08:05:09;16.70;99.90
9998;DHT22;5038;53.064;8.624;2022-08-30T08:07:43;16.80;99.90
9998;DHT22;5038;53.064;8.624;2022-08-30T08:10:11;16.80;99.90
9998;DHT22;5038;53.064;8.624;2022-08-30T08:12:39;16.80;99.90
9998;DHT22;5038;53.064;8.624;2022-08-30T08:15:08;16.90;99.90
9998;DHT22;5038;53.064;8.624;2022-08-30T08:17:38;16.90;99.90
9998;DHT22;5038;53.064;8.624;2022-08-30T08:20:07;17.10;99.90
9998;DHT22;5038;53.064;8.624;2022-08-30T08:22:35;17.10;99.90
9998;DHT22;5038;53.064;8.624;2022-08-30T08:25:06;17.40;99.90
9998;DHT22;5038;53.064;8.624;2022-08-30T08:27:35;17.60;99.90
9998;DHT22;5038;53.064;8.624;2022-08-30T08:30:04;17.70;99.90
9998;DHT22;5038;53.064;8.624;2022-08-30T08:32:32;17.80;99.90
9998;DHT22;5038;53.064;8.624;2022-08-30T08:35:02;18.00;99.90
9998;DHT22;5038;53.064;8.624;2022-08-30T08:37:31;18.30;99.90
9998;DHT22;5038;53.064;8.624;2022-08-30T08:39:59;18.40;99.90
9998;DHT22;5038;53.064;8.624;2022-08-30T08:42:35;18.50;99.90
9998;DHT22;5038;53.064;8.624;2022-08-30T08:45:12;18.70;99.90
9998;DHT22;5038;53.064;8.624;2022-08-30T08:47:56;18.80;99.90
9998;DHT22;5038;53.064;8.624;2022-08-30T08:50:31;19.00;99.90
9998;DHT22;5038;53.064;8.624;2022-08-30T08:53:04;19.10;99.90
9998;DHT22;5038;53.064;8.624;2022-08-30T08:56:13;19.20;99.90
9998;DHT22;5038;53.064;8.624;2022-08-30T08:58:44;19.20;99.90
9998;DHT22;5038;53.064;8.624;2022-08-30T09:01:14;19.30;99.90
9998;DHT22;5038;53.064;8.624;2022-08-30T09:03:43;19.30;99.90
9998;DHT22;5038;53.064;8.624;2022-08-30T09:06:26;19.40;99.90
9998;DHT22;5038;53.064;8.624;2022-08-30T09:08:58;19.40;99.90
9998;DHT22;5038;53.064;8.624;2022-08-30T09:11:30;19.50;99.90
9998;DHT22;5038;53.064;8.624;2022-08-30T09:13:59;19.50;99.90
9998;DHT22;5038;53.064;8.624;2022-08-30T09:16:58;19.60;99.90
9998;DHT22;5038;53.064;8.624;2022-08-30T09:19:37;19.70;99.90
9998;DHT22;5038;53.064;8.624;2022-08-30T09:22:21;19.90;99.90
9998;DHT22;5038;53.064;8.624;2022-08-30T09:24:54;20.00;99.90
9998;DHT22;5038;53.064;8.624;2022-08-30T09:27:29;20.10;99.90
9998;DHT22;5038;53.064;8.624;2022-08-30T09:30:02;20.20;99.90
9998;DHT22;5038;53.064;8.624;2022-08-30T09:32:35;20.30;99.90
9998;DHT22;5038;53.064;8.624;2022-08-30T09:35:06;20.40;99.90
9998;DHT22;5038;53.064;8.624;2022-08-30T09:37:40;20.50;99.90
9998;DHT22;5038;53.064;8.624;2022-08-30T09:40:22;20.60;99.90
9998;DHT22;5038;53.064;8.624;2022-08-30T09:43:05;20.70;99.90
9998;DHT22;5038;53.064;8.624;2022-08-30T09:45:36;20.80;99.90
9998;DHT22;5038;53.064;8.624;2022-08-30T09:48:26;20.90;99.90
9998;DHT22;5038;53.064;8.624;2022-08-30T09:51:12;21.00;99.90
9998;DHT22;5038;53.064;8.624;2022-08-30T09:53:51;21.10;99.90
9998;DHT22;5038;53.064;8.624;2022-08-30T09:56:50;21.10;99.90
9998;DHT22;5038;53.064;8.624;2022-08-30T09:59:34;21.10;99.90
9998;DHT22;5038;53.064;8.624;2022-08-30T10:02:15;21.10;99.90
9998;DHT22;5038;53.064;8.624;2022-08-30T10:04:52;21.00;99.90
9998;DHT22;5038;53.064;8.624;2022-08-30T10:07:27;21.10;99.90
9998;DHT22;5038;53.064;8.624;2022-08-30T10:10:02;21.20;99.90
9998;DHT22;5038;53.064;8.624;2022-08-30T10:12:39;21.20;99.90
9998;DHT22;5038;53.064;8.624;2022-08-30T10:15:13;21.20;99.90
9998;DHT22;5038;53.064;8.624;2022-08-30T10:17:49;21.20;99.90
9998;DHT22;5038;53.064;8.624;2022-08-30T10:20:22;21.20;99.90
9998;DHT22;5038;53.064;8.624;2022-08-30T10:22:57;21.20;99.90
9998;DHT22;5038;53.064;8.624;2022-08-30T10:25:32;21.20;99.90
9998;DHT22;5038;53.064;8.624;2022-08-30T10:28:06;21.20;99.90
9998;DHT22;5038;53.064;8.624;2022-08-30T10:30:39;21.20;99.90
9998;DHT22;5038;53.064;8.624;2022-08-30T10:33:12;21.30;99.90
9998;DHT22;5038;53.064;8.624;2022-08-30T10:35:46;21.40;99.90
9998;DHT22;5038;53.064;8.624;2022-08-30T10:38:19;21.50;99.90
9998;DHT22;5038;53.064;8.624;2022-08-30T10:40:54;21.70;99.90
9998;DHT22;5038;53.064;8.624;2022-08-30T10:43:48;21.70;99.90
9998;DHT22;5038;53.064;8.624;2022-08-30T10:46:24;21.70;99.90
9998;DHT22;5038;53.064;8.624;2022-08-30T10:48:55;21.70;99.90
9998;DHT22;5038;53.064;8.624;2022-08-30T10:51:30;21.60;99.90
9998;DHT22;5038;53.064;8.624;2022-08-30T10:54:08;21.60;99.90
9998;DHT22;5038;53.064;8.624;2022-08-30T10:56:48;21.60;99.90
9998;DHT22;5038;53.064;8.624;2022-08-30T10:59:18;21.60;99.90
9998;DHT22;5038;53.064;8.624;2022-08-30T11:02:14;21.60;99.90
9998;DHT22;5038;53.064;8.624;2022-08-30T11:05:21;21.60;99.90
9998;DHT22;5038;53.064;8.624;2022-08-30T11:08:00;21.70;99.90
9998;DHT22;5038;53.064;8.624;2022-08-30T11:10:52;21.80;99.90
9998;DHT22;5038;53.064;8.624;2022-08-30T11:13:25;21.80;99.90
9998;DHT22;5038;53.064;8.624;2022-08-30T11:16:00;21.90;99.90
9998;DHT22;5038;53.064;8.624;2022-08-30T11:18:33;21.90;99.90
9998;DHT22;5038;53.064;8.624;2022-08-30T11:21:23;22.00;99.90
9998;DHT22;5038;53.064;8.624;2022-08-30T11:24:02;22.00;99.90
9998;DHT22;5038;53.064;8.624;2022-08-30T11:26:58;22.10;99.90
9998;DHT22;5038;53.064;8.624;2022-08-30T11:29:34;22.10;99.80
9998;DHT22;5038;53.064;8.624;2022-08-30T11:32:24;22.10;99.70
9998;DHT22;5038;53.064;8.624;2022-08-30T11:35:37;22.20;99.40
9998;DHT22;5038;53.064;8.624;2022-08-30T11:38:18;22.10;99.30
9998;DHT22;5038;53.064;8.624;2022-08-30T11:41:04;22.20;99.40
9998;DHT22;5038;53.064;8.624;2022-08-30T11:43:50;22.20;99.30
9998;DHT22;5038;53.064;8.624;2022-08-30T11:46:37;22.20;99.20
9998;DHT22;5038;53.064;8.624;2022-08-30T11:49:32;22.20;99.10
9998;DHT22;5038;53.064;8.624;2022-08-30T11:55:39;22.20;99.10
9998;DHT22;5038;53.064;8.624;2022-08-30T11:58:19;22.20;99.00
9998;DHT22;5038;53.064;8.624;2022-08-30T12:01:17;22.20;99.00
9998;DHT22;5038;53.064;8.624;2022-08-30T12:04:10;22.20;98.90
9998;DHT22;5038;53.064;8.624;2022-08-30T12:06:48;22.20;98.90
9998;DHT22;5038;53.064;8.624;2022-08-30T12:12:53;22.20;98.60
9998;DHT22;5038;53.064;8.624;2022-08-30T12:18:31;22.30;98.30
9998;DHT22;5038;53.064;8.624;2022-08-30T12:21:08;22.40;98.60
9998;DHT22;5038;53.064;8.624;2022-08-30T12:23:46;22.40;98.10
9998;DHT22;5038;53.064;8.624;2022-08-30T12:26:23;22.40;98.30
9998;DHT22;5038;53.064;8.624;2022-08-30T12:29:12;22.40;98.20
9998;DHT22;5038;53.064;8.624;2022-08-30T12:31:43;22.50;97.90
9998;DHT22;5038;53.064;8.624;2022-08-30T12:34:21;22.50;97.90
9998;DHT22;5038;53.064;8.624;2022-08-30T12:36:55;22.60;97.80
9998;DHT22;5038;53.064;8.624;2022-08-30T12:39:27;22.60;97.80
9998;DHT22;5038;53.064;8.624;2022-08-30T12:41:56;22.70;97.70
9998;DHT22;5038;53.064;8.624;2022-08-30T12:44:26;22.70;97.60
9998;DHT22;5038;53.064;8.624;2022-08-30T12:46:59;22.70;97.50
9998;DHT22;5038;53.064;8.624;2022-08-30T12:49:31;22.70;97.20
9998;DHT22;5038;53.064;8.624;2022-08-30T12:52:17;22.80;97.10
9998;DHT22;5038;53.064;8.624;2022-08-30T12:54:47;22.80;97.00
9998;DHT22;5038;53.064;8.624;2022-08-30T12:57:34;22.70;97.00
9998;DHT22;5038;53.064;8.624;2022-08-30T13:00:04;22.70;96.80
9998;DHT22;5038;53.064;8.624;2022-08-30T13:02:43;22.70;96.90
9998;DHT22;5038;53.064;8.624;2022-08-30T13:05:33;22.70;97.10
9998;DHT22;5038;53.064;8.624;2022-08-30T13:08:18;22.80;96.90
9998;DHT22;5038;53.064;8.624;2022-08-30T13:10:54;22.90;96.90
9998;DHT22;5038;53.064;8.624;2022-08-30T13:13:33;23.00;96.80
9998;DHT22;5038;53.064;8.624;2022-08-30T13:16:20;23.10;96.70
9998;DHT22;5038;53.064;8.624;2022-08-30T13:18:53;23.20;96.60
9998;DHT22;5038;53.064;8.624;2022-08-30T13:21:27;23.30;96.60
9998;DHT22;5038;53.064;8.624;2022-08-30T13:24:00;23.40;96.50
9998;DHT22;5038;53.064;8.624;2022-08-30T13:26:31;23.40;96.70
9998;DHT22;5038;53.064;8.624;2022-08-30T13:29:02;23.40;96.40
9998;DHT22;5038;53.064;8.624;2022-08-30T13:31:36;23.40;96.30
9998;DHT22;5038;53.064;8.624;2022-08-30T13:34:04;23.30;96.40
9998;DHT22;5038;53.064;8.624;2022-08-30T13:36:34;23.30;96.10
9998;DHT22;5038;53.064;8.624;2022-08-30T13:39:05;23.20;96.00
9998;DHT22;5038;53.064;8.624;2022-08-30T13:41:38;23.30;95.90
9998;DHT22;5038;53.064;8.624;2022-08-30T13:44:07;23.30;95.90
9998;DHT22;5038;53.064;8.624;2022-08-30T13:46:40;23.40;95.70
9998;DHT22;5038;53.064;8.624;2022-08-30T13:49:17;23.40;95.40
9998;DHT22;5038;53.064;8.624;2022-08-30T13:52:07;23.50;95.20
9998;DHT22;5038;53.064;8.624;2022-08-30T13:54:49;23.50;95.20
9998;DHT22;5038;53.064;8.624;2022-08-30T13:57:19;23.60;95.20
9998;DHT22;5038;53.064;8.624;2022-08-30T14:00:11;23.70;95.10
9998;DHT22;5038;53.064;8.624;2022-08-30T14:02:44;23.70;95.00
9998;DHT22;5038;53.064;8.624;2022-08-30T14:05:21;23.70;94.80
9998;DHT22;5038;53.064;8.624;2022-08-30T14:08:11;23.60;94.60
9998;DHT22;5038;53.064;8.624;2022-08-30T14:11:01;23.60;94.50
9998;DHT22;5038;53.064;8.624;2022-08-30T14:13:30;23.50;94.40
9998;DHT22;5038;53.064;8.624;2022-08-30T14:16:00;23.50;94.80
9998;DHT22;5038;53.064;8.624;2022-08-30T14:18:48;23.50;94.70
9998;DHT22;5038;53.064;8.624;2022-08-30T14:21:17;23.50;94.80
9998;DHT22;5038;53.064;8.624;2022-08-30T14:23:50;23.40;94.90
9998;DHT22;5038;53.064;8.624;2022-08-30T14:26:22;23.40;95.10
9998;DHT22;5038;53.064;8.624;2022-08-30T14:28:52;23.40;94.90
9998;DHT22;5038;53.064;8.624;2022-08-30T14:31:20;23.30;94.90
9998;DHT22;5038;53.064;8.624;2022-08-30T14:33:48;23.30;94.90
9998;DHT22;5038;53.064;8.624;2022-08-30T14:36:17;23.30;94.90
9998;DHT22;5038;53.064;8.624;2022-08-30T14:38:46;23.30;94.90
9998;DHT22;5038;53.064;8.624;2022-08-30T14:41:15;23.30;95.00
9998;DHT22;5038;53.064;8.624;2022-08-30T14:43:45;23.30;95.00
9998;DHT22;5038;53.064;8.624;2022-08-30T14:46:13;23.40;95.00
9998;DHT22;5038;53.064;8.624;2022-08-30T14:48:42;23.40;95.00
9998;DHT22;5038;53.064;8.624;2022-08-30T14:51:14;23.40;95.00
9998;DHT22;5038;53.064;8.624;2022-08-30T14:53:43;23.40;95.00
9998;DHT22;5038;53.064;8.624;2022-08-30T14:56:15;23.40;95.00
9998;DHT22;5038;53.064;8.624;2022-08-30T14:58:48;23.30;94.90
9998;DHT22;5038;53.064;8.624;2022-08-30T15:01:17;23.30;94.80
9998;DHT22;5038;53.064;8.624;2022-08-30T15:03:47;23.30;94.90
9998;DHT22;5038;53.064;8.624;2022-08-30T15:06:17;23.30;94.80
9998;DHT22;5038;53.064;8.624;2022-08-30T15:08:45;23.40;94.80
9998;DHT22;5038;53.064;8.624;2022-08-30T15:11:16;23.40;94.70
9998;DHT22;5038;53.064;8.624;2022-08-30T15:13:45;23.40;94.60
9998;DHT22;5038;53.064;8.624;2022-08-30T15:16:17;23.40;94.50
9998;DHT22;5038;53.064;8.624;2022-08-30T15:18:47;23.50;94.50
9998;DHT22;5038;53.064;8.624;2022-08-30T15:21:21;23.50;94.40
9998;DHT22;5038;53.064;8.624;2022-08-30T15:23:51;23.60;94.40
9998;DHT22;5038;53.064;8.624;2022-08-30T15:26:20;23.80;94.50
9998;DHT22;5038;53.064;8.624;2022-08-30T15:28:48;23.80;94.40
9998;DHT22;5038;53.064;8.624;2022-08-30T15:31:20;23.90;94.30
9998;DHT22;5038;53.064;8.624;2022-08-30T15:33:49;23.90;94.20
9998;DHT22;5038;53.064;8.624;2022-08-30T15:36:17;23.90;94.10
9998;DHT22;5038;53.064;8.624;2022-08-30T15:38:45;23.80;94.00
9998;DHT22;5038;53.064;8.624;2022-08-30T15:41:14;23.80;94.00
9998;DHT22;5038;53.064;8.624;2022-08-30T15:43:43;23.80;94.00
9998;DHT22;5038;53.064;8.624;2022-08-30T15:46:17;23.80;94.00
9998;DHT22;5038;53.064;8.624;2022-08-30T15:48:48;23.70;93.90
9998;DHT22;5038;53.064;8.624;2022-08-30T15:51:18;23.80;93.90
9998;DHT22;5038;53.064;8.624;2022-08-30T15:53:47;23.80;93.90
9998;DHT22;5038;53.064;8.624;2022-08-30T15:56:19;23.80;93.80
9998;DHT22;5038;53.064;8.624;2022-08-30T15:58:48;23.80;93.80
9998;DHT22;5038;53.064;8.624;2022-08-30T16:01:19;23.90;93.70
9998;DHT22;5038;53.064;8.624;2022-08-30T16:03:58;23.90;93.60
9998;DHT22;5038;53.064;8.624;2022-08-30T16:06:29;23.90;93.50
9998;DHT22;5038;53.064;8.624;2022-08-30T16:08:58;24.00;93.40
9998;DHT22;5038;53.064;8.624;2022-08-30T16:11:27;23.90;93.30
9998;DHT22;5038;53.064;8.624;2022-08-30T16:13:55;24.00;93.30
9998;DHT22;5038;53.064;8.624;2022-08-30T16:16:26;23.90;93.10
9998;DHT22;5038;53.064;8.624;2022-08-30T16:18:58;23.90;93.10
9998;DHT22;5038;53.064;8.624;2022-08-30T16:21:27;23.90;93.00
9998;DHT22;5038;53.064;8.624;2022-08-30T16:23:57;23.80;93.00
9998;DHT22;5038;53.064;8.624;2022-08-30T16:26:27;23.80;93.00
9998;DHT22;5038;53.064;8.624;2022-08-30T16:28:56;23.70;92.90
9998;DHT22;5038;53.064;8.624;2022-08-30T16:31:26;23.70;92.90
9998;DHT22;5038;53.064;8.624;2022-08-30T16:33:56;23.60;92.80
9998;DHT22;5038;53.064;8.624;2022-08-30T16:36:31;23.50;92.80
9998;DHT22;5038;53.064;8.624;2022-08-30T16:39:02;23.50;92.80
9998;DHT22;5038;53.064;8.624;2022-08-30T16:41:34;23.60;92.90
9998;DHT22;5038;53.064;8.624;2022-08-30T16:44:03;23.70;93.00
9998;DHT22;5038;53.064;8.624;2022-08-30T16:46:32;23.80;93.10